sensor_id;sensor_type;location;lat;lon;timestamp;temperature;humidity
21616;DHT22;10970;48.714;9.584;2023-04-25T00:01:38;8.40;99.90
21616;DHT22;10970;48.714;9.584;2023-04-25T00:04:04;8.30;99.90
21616;DHT22;10970;48.714;9.584;2023-04-25T00:06:38;8.30;99.90
21616;DHT22;10970;48.714;9.584;2023-04-25T00:09:06;8.30;99.90
21616;DHT22;10970;48.714;9.584;2023-04-25T00:11:36;8.20;99.90
21616;DHT22;10970;48.714;9.584;2023-04-25T00:14:03;8.20;99.90
21616;DHT22;10970;48.714;9.584;2023-04-25T00:16:29;8.20;99.90
21616;DHT22;10970;48.714;9.584;2023-04-25T00:18:59;8.20;99.90
21616;DHT22;10970;48.714;9.584;2023-04-25T00:21:24;8.20;99.90
21616;DHT22;10970;48.714;9.584;2023-04-25T00:23:53;8.10;99.90
21616;DHT22;10970;48.714;9.584;2023-04-25T00:26:19;8.10;99.90
21616;DHT22;10970;48.714;9.584;2023-04-25T00:28:47;8.10;99.90
21616;DHT22;10970;48.714;9.584;2023-04-25T00:31:13;8.00;99.90
21616;DHT22;10970;48.714;9.584;2023-04-25T00:33:40;8.10;99.90
21616;DHT22;10970;48.714;9.584;2023-04-25T00:36:06;8.10;99.90
21616;DHT22;10970;48.714;9.584;2023-04-25T00:38:33;8.10;99.90
21616;DHT22;10970;48.714;9.584;2023-04-25T00:40:59;8.10;99.90
21616;DHT22;10970;48.714;9.584;2023-04-25T00:43:28;8.10;99.90
21616;DHT22;10970;48.714;9.584;2023-04-25T00:45:57;8.10;99.90
21616;DHT22;10970;48.714;9.584;2023-04-25T00:48:23;8.00;99.90
21616;DHT22;10970;48.714;9.584;2023-04-25T00:50:52;8.00;99.90
21616;DHT22;10970;48.714;9.584;2023-04-25T00:53:20;8.00;99.90
21616;DHT22;10970;48.714;9.584;2023-04-25T00:55:48;8.00;99.90
21616;DHT22;10970;48.714;9.584;2023-04-25T00:58:20;8.00;99.90
21616;DHT22;10970;48.714;9.584;2023-04-25T01:00:48;8.00;99.90
21616;DHT22;10970;48.714;9.584;2023-04-25T01:03:16;8.00;99.90
21616;DHT22;10970;48.714;9.584;2023-04-25T01:05:43;8.00;99.90
21616;DHT22;10970;48.714;9.584;2023-04-25T01:08:09;8.00;99.90
21616;DHT22;10970;48.714;9.584;2023-04-25T01:10:35;8.00;99.90
21616;DHT22;10970;48.714;9.584;2023-04-25T01:13:01;7.90;99.90
21616;DHT22;10970;48.714;9.584;2023-04-25T01:15:27;7.90;99.90
21616;DHT22;10970;48.714;9.584;2023-04-25T01:17:53;8.00;99.90
21616;DHT22;10970;48.714;9.584;2023-04-25T01:20:24;7.90;99.90
21616;DHT22;10970;48.714;9.584;2023-04-25T01:22:51;7.90;99.90
21616;DHT22;10970;48.714;9.584;2023-04-25T01:25:18;8.00;99.90
21616;DHT22;10970;48.714;9.584;2023-04-25T01:27:44;8.00;99.90
21616;DHT22;10970;48.714;9.584;2023-04-25T01:30:10;8.00;99.90
21616;DHT22;10970;48.714;9.584;2023-04-25T01:32:36;8.00;99.90
21616;DHT22;10970;48.714;9.584;2023-04-25T01:35:06;8.00;99.90
21616;DHT22;10970;48.714;9.584;2023-04-25T01:37:39;8.00;99.90
21616;DHT22;10970;48.714;9.584;2023-04-25T01:40:11;8.00;99.90
21616;DHT22;10970;48.714;9.584;2023-04-25T01:42:42;8.00;99.90
21616;DHT22;10970;48.714;9.584;2023-04-25T01:45:09;8.00;99.90
21616;DHT22;10970;48.714;9.584;2023-04-25T01:47:36;8.00;99.90
21616;DHT22;10970;48.714;9.584;2023-04-25T01:50:03;8.00;99.90
21616;DHT22;10970;48.714;9.584;2023-04-25T01:52:29;8.00;99.90
21616;DHT22;10970;48.714;9.584;2023-04-25T01:54:57;8.00;99.90
21616;DHT22;10970;48.714;9.584;2023-04-25T01:57:23;8.00;99.90
21616;DHT22;10970;48.714;9.584;2023-04-25T01:59:49;8.00;99.90
21616;DHT22;10970;48.714;9.584;2023-04-25T02:02:15;8.00;99.90
21616;DHT22;10970;48.714;9.584;2023-04-25T02:04:41;8.00;99.90
21616;DHT22;10970;48.714;9.584;2023-04-25T02:07:06;8.00;99.90
21616;DHT22;10970;48.714;9.584;2023-04-25T02:09:32;8.00;99.90
21616;DHT22;10970;48.714;9.584;2023-04-25T02:11:58;8.00;99.90
21616;DHT22;10970;48.714;9.584;2023-04-25T02:14:23;8.00;99.90
21616;DHT22;10970;48.714;9.584;2023-04-25T02:16:50;7.90;99.90
21616;DHT22;10970;48.714;9.584;2023-04-25T02:19:16;7.90;99.90
21616;DHT22;10970;48.714;9.584;2023-04-25T02:21:42;7.90;99.90
21616;DHT22;10970;48.714;9.584;2023-04-25T02:24:09;7.90;99.90
21616;DHT22;10970;48.714;9.584;2023-04-25T02:26:35;7.90;99.90
21616;DHT22;10970;48.714;9.584;2023-04-25T02:29:01;7.80;99.90
21616;DHT22;10970;48.714;9.584;2023-04-25T02:31:26;7.90;99.90
21616;DHT22;10970;48.714;9.584;2023-04-25T02:33:52;7.90;99.90
21616;DHT22;10970;48.714;9.584;2023-04-25T02:36:18;7.90;99.90
21616;DHT22;10970;48.714;9.584;2023-04-25T02:38:44;7.90;99.90
21616;DHT22;10970;48.714;9.584;2023-04-25T02:41:10;7.90;99.90
21616;DHT22;10970;48.714;9.584;2023-04-25T02:43:36;7.80;99.90
21616;DHT22;10970;48.714;9.584;2023-04-25T02:46:02;7.80;99.90
21616;DHT22;10970;48.714;9.584;2023-04-25T02:48:28;7.70;99.90
21616;DHT22;10970;48.714;9.584;2023-04-25T02:50:54;7.70;99.90
21616;DHT22;10970;48.714;9.584;2023-04-25T02:53:20;7.60;99.90
21616;DHT22;10970;48.714;9.584;2023-04-25T02:55:46;7.60;99.90
21616;DHT22;10970;48.714;9.584;2023-04-25T02:58:11;7.60;99.90
21616;DHT22;10970;48.714;9.584;2023-04-25T03:00:39;7.50;99.90
21616;DHT22;10970;48.714;9.584;2023-04-25T03:03:05;7.50;99.90
21616;DHT22;10970;48.714;9.584;2023-04-25T03:05:30;7.50;99.90
21616;DHT22;10970;48.714;9.584;2023-04-25T03:07:56;7.50;99.90
21616;DHT22;10970;48.714;9.584;2023-04-25T03:10:21;7.50;99.90
21616;DHT22;10970;48.714;9.584;2023-04-25T03:12:47;7.50;99.90
21616;DHT22;10970;48.714;9.584;2023-04-25T03:15:14;7.50;99.90
21616;DHT22;10970;48.714;9.584;2023-04-25T03:17:42;7.50;99.90
21616;DHT22;10970;48.714;9.584;2023-04-25T03:20:08;7.50;99.90
21616;DHT22;10970;48.714;9.584;2023-04-25T03:22:34;7.40;99.90
21616;DHT22;10970;48.714;9.584;2023-04-25T03:24:59;7.40;99.90
21616;DHT22;10970;48.714;9.584;2023-04-25T03:27:25;7.30;99.90
21616;DHT22;10970;48.714;9.584;2023-04-25T03:29:51;7.30;99.90
21616;DHT22;10970;48.714;9.584;2023-04-25T03:32:16;7.20;99.90
21616;DHT22;10970;48.714;9.584;2023-04-25T03:34:42;7.10;99.90
21616;DHT22;10970;48.714;9.584;2023-04-25T03:37:08;7.20;99.90
21616;DHT22;10970;48.714;9.584;2023-04-25T03:39:33;7.20;99.90
21616;DHT22;10970;48.714;9.584;2023-04-25T03:41:59;7.20;99.90
21616;DHT22;10970;48.714;9.584;2023-04-25T03:44:25;7.30;99.90
21616;DHT22;10970;48.714;9.584;2023-04-25T03:46:51;7.40;99.90
21616;DHT22;10970;48.714;9.584;2023-04-25T03:49:17;7.40;99.90
21616;DHT22;10970;48.714;9.584;2023-04-25T03:51:42;7.40;99.90
21616;DHT22;10970;48.714;9.584;2023-04-25T03:54:08;7.50;99.90
21616;DHT22;10970;48.714;9.584;2023-04-25T03:56:35;7.40;99.90
21616;DHT22;10970;48.714;9.584;2023-04-25T03:59:00;7.50;99.90
21616;DHT22;10970;48.714;9.584;2023-04-25T04:01:26;7.50;99.90
21616;DHT22;10970;48.714;9.584;2023-04-25T04:03:52;7.50;99.90
21616;DHT22;10970;48.714;9.584;2023-04-25T04:06:17;7.50;99.90
21616;DHT22;10970;48.714;9.584;2023-04-25T04:08:43;7.50;99.90
21616;DHT22;10970;48.714;9.584;2023-04-25T04:11:09;7.50;99.90
21616;DHT22;10970;48.714;9.584;2023-04-25T04:13:35;7.50;99.90
21616;DHT22;10970;48.714;9.584;2023-04-25T04:16:00;7.50;99.90
21616;DHT22;10970;48.714;9.584;2023-04-25T04:18:26;7.50;99.90
21616;DHT22;10970;48.714;9.584;2023-04-25T04:20:52;7.40;99.90
21616;DHT22;10970;48.714;9.584;2023-04-25T04:23:18;7.40;99.90
21616;DHT22;10970;48.714;9.584;2023-04-25T04:25:44;7.40;99.90
21616;DHT22;10970;48.714;9.584;2023-04-25T04:28:10;7.40;99.90
21616;DHT22;10970;48.714;9.584;2023-04-25T04:30:36;7.40;99.90
21616;DHT22;10970;48.714;9.584;2023-04-25T04:33:02;7.50;99.90
21616;DHT22;10970;48.714;9.584;2023-04-25T04:35:28;7.50;99.90
21616;DHT22;10970;48.714;9.584;2023-04-25T04:37:54;7.50;99.90
21616;DHT22;10970;48.714;9.584;2023-04-25T04:40:20;7.60;99.90
21616;DHT22;10970;48.714;9.584;2023-04-25T04:42:47;7.60;99.90
21616;DHT22;10970;48.714;9.584;2023-04-25T04:45:13;7.60;99.90
21616;DHT22;10970;48.714;9.584;2023-04-25T04:47:39;7.60;99.90
21616;DHT22;10970;48.714;9.584;2023-04-25T04:50:08;7.60;99.90
21616;DHT22;10970;48.714;9.584;2023-04-25T04:52:38;7.60;99.90
21616;DHT22;10970;48.714;9.584;2023-04-25T04:55:04;7.70;99.90
21616;DHT22;10970;48.714;9.584;2023-04-25T04:57:30;7.80;99.90
21616;DHT22;10970;48.714;9.584;2023-04-25T04:59:58;7.90;99.90
21616;DHT22;10970;48.714;9.584;2023-04-25T05:02:24;7.90;99.90
21616;DHT22;10970;48.714;9.584;2023-04-25T05:04:51;7.90;99.90
21616;DHT22;10970;48.714;9.584;2023-04-25T05:07:17;7.90;99.90
21616;DHT22;10970;48.714;9.584;2023-04-25T05:09:43;7.90;99.90
21616;DHT22;10970;48.714;9.584;2023-04-25T05:12:09;7.90;99.90
21616;DHT22;10970;48.714;9.584;2023-04-25T05:14:34;7.90;99.90
21616;DHT22;10970;48.714;9.584;2023-04-25T05:17:00;7.90;99.90
21616;DHT22;10970;48.714;9.584;2023-04-25T05:19:26;7.90;99.90
21616;DHT22;10970;48.714;9.584;2023-04-25T05:21:52;7.90;99.90
21616;DHT22;10970;48.714;9.584;2023-04-25T05:24:18;8.00;99.90
21616;DHT22;10970;48.714;9.584;2023-04-25T05:26:44;8.10;99.90
21616;DHT22;10970;48.714;9.584;2023-04-25T05:29:09;8.30;99.90
21616;DHT22;10970;48.714;9.584;2023-04-25T05:31:35;8.30;99.90
21616;DHT22;10970;48.714;9.584;2023-04-25T05:34:01;8.40;99.90
21616;DHT22;10970;48.714;9.584;2023-04-25T05:36:27;8.40;99.90
21616;DHT22;10970;48.714;9.584;2023-04-25T05:38:53;8.40;99.90
21616;DHT22;10970;48.714;9.584;2023-04-25T05:41:18;8.30;99.90
21616;DHT22;10970;48.714;9.584;2023-04-25T05:43:44;8.30;99.90
21616;DHT22;10970;48.714;9.584;2023-04-25T05:46:12;8.30;99.90
21616;DHT22;10970;48.714;9.584;2023-04-25T05:48:39;8.30;99.90
21616;DHT22;10970;48.714;9.584;2023-04-25T05:51:05;8.30;99.90
21616;DHT22;10970;48.714;9.584;2023-04-25T05:53:30;8.40;99.90
21616;DHT22;10970;48.714;9.584;2023-04-25T05:55:56;8.40;99.90
21616;DHT22;10970;48.714;9.584;2023-04-25T05:58:22;8.50;99.90
21616;DHT22;10970;48.714;9.584;2023-04-25T06:00:48;8.50;99.90
21616;DHT22;10970;48.714;9.584;2023-04-25T06:03:14;8.70;99.90
21616;DHT22;10970;48.714;9.584;2023-04-25T06:05:43;8.90;99.90
21616;DHT22;10970;48.714;9.584;2023-04-25T06:08:10;9.00;99.90
21616;DHT22;10970;48.714;9.584;2023-04-25T06:10:36;9.20;99.90
21616;DHT22;10970;48.714;9.584;2023-04-25T06:13:02;9.20;99.90
21616;DHT22;10970;48.714;9.584;2023-04-25T06:15:27;9.30;99.90
21616;DHT22;10970;48.714;9.584;2023-04-25T06:17:53;9.30;99.90
21616;DHT22;10970;48.714;9.584;2023-04-25T06:20:19;9.40;99.90
21616;DHT22;10970;48.714;9.584;2023-04-25T06:22:48;9.50;99.90
21616;DHT22;10970;48.714;9.584;2023-04-25T06:25:14;9.70;99.90
21616;DHT22;10970;48.714;9.584;2023-04-25T06:27:40;9.80;99.90
21616;DHT22;10970;48.714;9.584;2023-04-25T06:30:06;10.00;99.90
21616;DHT22;10970;48.714;9.584;2023-04-25T06:32:32;10.30;99.90
21616;DHT22;10970;48.714;9.584;2023-04-25T06:34:59;10.60;99.90
21616;DHT22;10970;48.714;9.584;2023-04-25T06:37:25;10.60;99.90
21616;DHT22;10970;48.714;9.584;2023-04-25T06:39:51;10.60;99.90
21616;DHT22;10970;48.714;9.584;2023-04-25T06:42:16;10.50;99.90
21616;DHT22;10970;48.714;9.584;2023-04-25T06:44:42;10.50;99.90
21616;DHT22;10970;48.714;9.584;2023-04-25T06:47:08;10.40;99.90
21616;DHT22;10970;48.714;9.584;2023-04-25T06:49:33;10.60;99.90
21616;DHT22;10970;48.714;9.584;2023-04-25T06:51:59;10.70;99.90
21616;DHT22;10970;48.714;9.584;2023-04-25T06:54:24;10.80;99.90
21616;DHT22;10970;48.714;9.584;2023-04-25T06:56:52;11.10;99.90
21616;DHT22;10970;48.714;9.584;2023-04-25T06:59:18;11.20;99.90
21616;DHT22;10970;48.714;9.584;2023-04-25T07:01:44;11.50;99.90
21616;DHT22;10970;48.714;9.584;2023-04-25T07:04:09;11.80;99.90
21616;DHT22;10970;48.714;9.584;2023-04-25T07:06:35;12.10;99.90
21616;DHT22;10970;48.714;9.584;2023-04-25T07:09:03;12.20;99.90
21616;DHT22;10970;48.714;9.584;2023-04-25T07:11:30;12.20;99.90
21616;DHT22;10970;48.714;9.584;2023-04-25T07:13:56;12.00;99.90
21616;DHT22;10970;48.714;9.584;2023-04-25T07:16:21;11.80;99.90
21616;DHT22;10970;48.714;9.584;2023-04-25T07:18:47;11.50;99.90
21616;DHT22;10970;48.714;9.584;2023-04-25T07:21:13;11.20;99.90
21616;DHT22;10970;48.714;9.584;2023-04-25T07:23:38;11.00;99.90
21616;DHT22;10970;48.714;9.584;2023-04-25T07:26:06;10.90;99.90
21616;DHT22;10970;48.714;9.584;2023-04-25T07:28:32;10.80;99.90
21616;DHT22;10970;48.714;9.584;2023-04-25T07:30:57;10.80;99.90
21616;DHT22;10970;48.714;9.584;2023-04-25T07:33:23;10.80;99.90
21616;DHT22;10970;48.714;9.584;2023-04-25T07:35:49;10.80;99.90
21616;DHT22;10970;48.714;9.584;2023-04-25T07:38:15;10.70;99.90
21616;DHT22;10970;48.714;9.584;2023-04-25T07:40:41;10.70;99.90
21616;DHT22;10970;48.714;9.584;2023-04-25T07:43:06;10.50;99.90
21616;DHT22;10970;48.714;9.584;2023-04-25T07:45:32;10.50;99.90
21616;DHT22;10970;48.714;9.584;2023-04-25T07:47:58;10.50;99.90
21616;DHT22;10970;48.714;9.584;2023-04-25T07:50:24;10.50;99.90
21616;DHT22;10970;48.714;9.584;2023-04-25T07:52:49;10.50;99.90
21616;DHT22;10970;48.714;9.584;2023-04-25T07:55:15;10.40;99.90
21616;DHT22;10970;48.714;9.584;2023-04-25T07:57:41;10.30;99.90
21616;DHT22;10970;48.714;9.584;2023-04-25T08:00:07;10.20;99.90
21616;DHT22;10970;48.714;9.584;2023-04-25T08:02:35;10.10;99.90
21616;DHT22;10970;48.714;9.584;2023-04-25T08:05:01;10.10;99.90
21616;DHT22;10970;48.714;9.584;2023-04-25T08:07:27;10.00;99.90
21616;DHT22;10970;48.714;9.584;2023-04-25T08:09:54;9.90;99.90
21616;DHT22;10970;48.714;9.584;2023-04-25T08:12:20;9.90;99.90
21616;DHT22;10970;48.714;9.584;2023-04-25T08:14:45;9.80;99.90
21616;DHT22;10970;48.714;9.584;2023-04-25T08:17:11;9.80;99.90
21616;DHT22;10970;48.714;9.584;2023-04-25T08:19:37;9.80;99.90
21616;DHT22;10970;48.714;9.584;2023-04-25T08:22:03;9.70;99.90
21616;DHT22;10970;48.714;9.584;2023-04-25T08:24:28;9.70;99.90
21616;DHT22;10970;48.714;9.584;2023-04-25T08:26:54;9.60;99.90
21616;DHT22;10970;48.714;9.584;2023-04-25T08:29:20;9.60;99.90
21616;DHT22;10970;48.714;9.584;2023-04-25T08:31:45;9.50;99.90
21616;DHT22;10970;48.714;9.584;2023-04-25T08:34:11;9.50;99.90
21616;DHT22;10970;48.714;9.584;2023-04-25T08:36:37;9.50;99.90
21616;DHT22;10970;48.714;9.584;2023-04-25T08:39:03;9.30;99.90
21616;DHT22;10970;48.714;9.584;2023-04-25T08:41:28;9.20;99.90
21616;DHT22;10970;48.714;9.584;2023-04-25T08:43:56;9.00;99.90
21616;DHT22;10970;48.714;9.584;2023-04-25T08:46:23;8.80;99.90
21616;DHT22;10970;48.714;9.584;2023-04-25T08:48:49;8.70;99.90
21616;DHT22;10970;48.714;9.584;2023-04-25T08:51:22;8.60;99.90
21616;DHT22;10970;48.714;9.584;2023-04-25T08:53:51;8.50;99.90
21616;DHT22;10970;48.714;9.584;2023-04-25T08:56:17;8.60;99.90
21616;DHT22;10970;48.714;9.584;2023-04-25T08:58:44;8.60;99.90
21616;DHT22;10970;48.714;9.584;2023-04-25T09:01:11;8.60;99.90
21616;DHT22;10970;48.714;9.584;2023-04-25T09:03:38;8.70;99.90
21616;DHT22;10970;48.714;9.584;2023-04-25T09:06:04;8.90;99.90
21616;DHT22;10970;48.714;9.584;2023-04-25T09:08:29;9.00;99.90
21616;DHT22;10970;48.714;9.584;2023-04-25T09:10:55;9.10;99.90
21616;DHT22;10970;48.714;9.584;2023-04-25T09:13:26;9.10;99.90
21616;DHT22;10970;48.714;9.584;2023-04-25T09:15:56;8.90;99.90
21616;DHT22;10970;48.714;9.584;2023-04-25T09:18:23;8.80;99.90
21616;DHT22;10970;48.714;9.584;2023-04-25T09:20:54;8.70;99.90
21616;DHT22;10970;48.714;9.584;2023-04-25T09:23:21;8.70;99.90
21616;DHT22;10970;48.714;9.584;2023-04-25T09:25:49;8.70;99.90
21616;DHT22;10970;48.714;9.584;2023-04-25T09:28:15;8.70;99.90
21616;DHT22;10970;48.714;9.584;2023-04-25T09:30:40;8.80;99.90
21616;DHT22;10970;48.714;9.584;2023-04-25T09:33:10;8.90;99.90
21616;DHT22;10970;48.714;9.584;2023-04-25T09:35:42;9.00;99.90
21616;DHT22;10970;48.714;9.584;2023-04-25T09:38:18;9.10;99.90
21616;DHT22;10970;48.714;9.584;2023-04-25T09:40:45;9.10;99.90
21616;DHT22;10970;48.714;9.584;2023-04-25T09:43:20;9.00;99.90
21616;DHT22;10970;48.714;9.584;2023-04-25T09:45:47;8.90;99.90
21616;DHT22;10970;48.714;9.584;2023-04-25T09:48:20;8.80;99.90
21616;DHT22;10970;48.714;9.584;2023-04-25T09:53:34;8.40;99.90
21616;DHT22;10970;48.714;9.584;2023-04-25T09:56:03;8.30;99.90
21616;DHT22;10970;48.714;9.584;2023-04-25T09:58:31;8.20;99.90
21616;DHT22;10970;48.714;9.584;2023-04-25T10:01:00;8.20;99.90
21616;DHT22;10970;48.714;9.584;2023-04-25T10:03:30;8.30;99.90
21616;DHT22;10970;48.714;9.584;2023-04-25T10:06:02;8.30;99.90
21616;DHT22;10970;48.714;9.584;2023-04-25T10:08:33;8.40;99.90
21616;DHT22;10970;48.714;9.584;2023-04-25T10:11:01;8.50;99.90
21616;DHT22;10970;48.714;9.584;2023-04-25T10:13:32;8.60;99.90
21616;DHT22;10970;48.714;9.584;2023-04-25T10:15:59;8.70;99.90
21616;DHT22;10970;48.714;9.584;2023-04-25T10:18:26;8.90;99.90
21616;DHT22;10970;48.714;9.584;2023-04-25T10:21:04;9.00;99.90
21616;DHT22;10970;48.714;9.584;2023-04-25T10:23:30;9.00;99.90
21616;DHT22;10970;48.714;9.584;2023-04-25T10:25:57;8.90;99.90
21616;DHT22;10970;48.714;9.584;2023-04-25T10:28:23;8.80;99.90
21616;DHT22;10970;48.714;9.584;2023-04-25T10:31:02;8.70;99.90
21616;DHT22;10970;48.714;9.584;2023-04-25T10:33:36;8.70;99.90
21616;DHT22;10970;48.714;9.584;2023-04-25T10:36:14;8.80;99.90
21616;DHT22;10970;48.714;9.584;2023-04-25T10:38:43;8.80;99.90
21616;DHT22;10970;48.714;9.584;2023-04-25T10:41:10;8.80;99.90
21616;DHT22;10970;48.714;9.584;2023-04-25T10:46:13;8.90;99.90
21616;DHT22;10970;48.714;9.584;2023-04-25T10:51:24;9.00;99.90
21616;DHT22;10970;48.714;9.584;2023-04-25T10:56:27;8.80;99.90
21616;DHT22;10970;48.714;9.584;2023-04-25T11:01:40;8.80;99.90
21616;DHT22;10970;48.714;9.584;2023-04-25T11:04:06;8.80;99.90
21616;DHT22;10970;48.714;9.584;2023-04-25T11:09:23;9.00;99.90
21616;DHT22;10970;48.714;9.584;2023-04-25T11:11:56;9.00;99.90
21616;DHT22;10970;48.714;9.584;2023-04-25T11:14:22;9.00;99.90
21616;DHT22;10970;48.714;9.584;2023-04-25T11:16:56;8.90;99.90
21616;DHT22;10970;48.714;9.584;2023-04-25T11:19:22;8.90;99.90
21616;DHT22;10970;48.714;9.584;2023-04-25T11:21:49;8.80;99.90
21616;DHT22;10970;48.714;9.584;2023-04-25T11:24:16;8.70;99.90
21616;DHT22;10970;48.714;9.584;2023-04-25T11:26:43;8.60;99.90
21616;DHT22;10970;48.714;9.584;2023-04-25T11:29:09;8.20;99.90
21616;DHT22;10970;48.714;9.584;2023-04-25T11:31:34;7.90;99.90
21616;DHT22;10970;48.714;9.584;2023-04-25T11:34:00;7.70;99.90
21616;DHT22;10970;48.714;9.584;2023-04-25T11:36:26;7.60;99.90
21616;DHT22;10970;48.714;9.584;2023-04-25T11:38:53;7.40;99.90
21616;DHT22;10970;48.714;9.584;2023-04-25T11:41:22;7.10;99.90
21616;DHT22;10970;48.714;9.584;2023-04-25T11:43:48;7.00;99.90
21616;DHT22;10970;48.714;9.584;2023-04-25T11:46:15;6.90;99.90
21616;DHT22;10970;48.714;9.584;2023-04-25T11:48:42;7.00;99.90
21616;DHT22;10970;48.714;9.584;2023-04-25T11:51:08;6.90;99.90
21616;DHT22;10970;48.714;9.584;2023-04-25T11:53:34;7.00;99.90
21616;DHT22;10970;48.714;9.584;2023-04-25T11:56:00;7.10;99.90
21616;DHT22;10970;48.714;9.584;2023-04-25T11:58:26;7.30;99.90
21616;DHT22;10970;48.714;9.584;2023-04-25T12:00:53;7.30;99.90
21616;DHT22;10970;48.714;9.584;2023-04-25T12:03:19;7.50;99.90
21616;DHT22;10970;48.714;9.584;2023-04-25T12:05:45;7.60;99.90
21616;DHT22;10970;48.714;9.584;2023-04-25T12:08:12;7.80;99.90
21616;DHT22;10970;48.714;9.584;2023-04-25T12:10:40;7.80;99.90
21616;DHT22;10970;48.714;9.584;2023-04-25T12:13:23;7.90;99.90
21616;DHT22;10970;48.714;9.584;2023-04-25T12:15:49;8.10;99.90
21616;DHT22;10970;48.714;9.584;2023-04-25T12:18:18;8.20;99.90
21616;DHT22;10970;48.714;9.584;2023-04-25T12:20:44;8.40;99.90
21616;DHT22;10970;48.714;9.584;2023-04-25T12:23:09;8.70;99.90
21616;DHT22;10970;48.714;9.584;2023-04-25T12:25:43;8.90;99.90
21616;DHT22;10970;48.714;9.584;2023-04-25T12:28:26;8.90;99.90
21616;DHT22;10970;48.714;9.584;2023-04-25T12:31:06;9.00;99.90
21616;DHT22;10970;48.714;9.584;2023-04-25T12:33:37;9.20;99.90
21616;DHT22;10970;48.714;9.584;2023-04-25T12:36:05;9.30;99.90
21616;DHT22;10970;48.714;9.584;2023-04-25T12:38:38;9.30;99.90
21616;DHT22;10970;48.714;9.584;2023-04-25T12:41:05;9.40;99.90
21616;DHT22;10970;48.714;9.584;2023-04-25T12:43:31;9.50;99.90
21616;DHT22;10970;48.714;9.584;2023-04-25T12:45:57;9.60;99.90
21616;DHT22;10970;48.714;9.584;2023-04-25T12:48:23;9.90;99.90
21616;DHT22;10970;48.714;9.584;2023-04-25T12:50:50;9.80;99.90
21616;DHT22;10970;48.714;9.584;2023-04-25T12:53:17;10.20;99.90
21616;DHT22;10970;48.714;9.584;2023-04-25T12:55:43;10.30;99.90
21616;DHT22;10970;48.714;9.584;2023-04-25T12:58:11;10.40;99.90
21616;DHT22;10970;48.714;9.584;2023-04-25T13:00:39;10.30;99.90
21616;DHT22;10970;48.714;9.584;2023-04-25T13:03:05;10.40;99.90
21616;DHT22;10970;48.714;9.584;2023-04-25T13:05:31;10.40;99.90
21616;DHT22;10970;48.714;9.584;2023-04-25T13:07:57;10.60;99.90
21616;DHT22;10970;48.714;9.584;2023-04-25T13:10:22;10.60;99.90
21616;DHT22;10970;48.714;9.584;2023-04-25T13:12:48;10.70;99.90
21616;DHT22;10970;48.714;9.584;2023-04-25T13:15:14;10.80;99.90
21616;DHT22;10970;48.714;9.584;2023-04-25T13:17:41;11.00;99.90
21616;DHT22;10970;48.714;9.584;2023-04-25T13:20:08;10.90;99.90
21616;DHT22;10970;48.714;9.584;2023-04-25T13:22:38;10.80;99.90
21616;DHT22;10970;48.714;9.584;2023-04-25T13:25:06;10.70;99.90
21616;DHT22;10970;48.714;9.584;2023-04-25T13:27:32;10.40;99.90
21616;DHT22;10970;48.714;9.584;2023-04-25T13:30:00;10.30;99.90
21616;DHT22;10970;48.714;9.584;2023-04-25T13:32:26;10.30;99.90
21616;DHT22;10970;48.714;9.584;2023-04-25T13:34:53;10.10;99.90
21616;DHT22;10970;48.714;9.584;2023-04-25T13:37:18;10.20;99.90
21616;DHT22;10970;48.714;9.584;2023-04-25T13:39:44;10.40;99.90
21616;DHT22;10970;48.714;9.584;2023-04-25T13:42:12;10.50;99.90
21616;DHT22;10970;48.714;9.584;2023-04-25T13:44:38;10.70;99.90
21616;DHT22;10970;48.714;9.584;2023-04-25T13:47:04;10.80;99.90
21616;DHT22;10970;48.714;9.584;2023-04-25T13:49:29;10.90;99.90
21616;DHT22;10970;48.714;9.584;2023-04-25T13:51:55;10.90;99.90
21616;DHT22;10970;48.714;9.584;2023-04-25T13:54:21;10.80;99.90
21616;DHT22;10970;48.714;9.584;2023-04-25T13:56:46;10.90;99.90
21616;DHT22;10970;48.714;9.584;2023-04-25T13:59:12;11.00;99.90
21616;DHT22;10970;48.714;9.584;2023-04-25T14:01:37;10.80;99.90
21616;DHT22;10970;48.714;9.584;2023-04-25T14:04:03;10.70;99.90
21616;DHT22;10970;48.714;9.584;2023-04-25T14:06:31;10.80;99.90
21616;DHT22;10970;48.714;9.584;2023-04-25T14:08:56;11.00;99.90
21616;DHT22;10970;48.714;9.584;2023-04-25T14:11:22;11.40;99.90
21616;DHT22;10970;48.714;9.584;2023-04-25T14:13:48;11.40;99.90
21616;DHT22;10970;48.714;9.584;2023-04-25T14:16:15;11.30;99.90
21616;DHT22;10970;48.714;9.584;2023-04-25T14:18:41;11.00;99.90
21616;DHT22;10970;48.714;9.584;2023-04-25T14:21:06;10.70;99.90
21616;DHT22;10970;48.714;9.584;2023-04-25T14:23:32;10.60;99.90
21616;DHT22;10970;48.714;9.584;2023-04-25T14:25:58;10.50;99.90
21616;DHT22;10970;48.714;9.584;2023-04-25T14:28:23;10.50;99.90
21616;DHT22;10970;48.714;9.584;2023-04-25T14:30:49;10.60;99.90
21616;DHT22;10970;48.714;9.584;2023-04-25T14:33:15;11.00;99.90
21616;DHT22;10970;48.714;9.584;2023-04-25T14:35:40;11.40;99.90
21616;DHT22;10970;48.714;9.584;2023-04-25T14:38:06;11.40;99.90
21616;DHT22;10970;48.714;9.584;2023-04-25T14:40:33;11.30;99.90
21616;DHT22;10970;48.714;9.584;2023-04-25T14:42:58;11.30;99.90
21616;DHT22;10970;48.714;9.584;2023-04-25T14:45:24;11.10;99.90
21616;DHT22;10970;48.714;9.584;2023-04-25T14:47:50;11.10;99.90
21616;DHT22;10970;48.714;9.584;2023-04-25T14:50:16;11.20;99.90
21616;DHT22;10970;48.714;9.584;2023-04-25T14:52:41;11.20;99.90
21616;DHT22;10970;48.714;9.584;2023-04-25T14:55:08;10.90;99.90
21616;DHT22;10970;48.714;9.584;2023-04-25T14:57:34;10.70;99.90
21616;DHT22;10970;48.714;9.584;2023-04-25T15:00:00;10.80;99.90
21616;DHT22;10970;48.714;9.584;2023-04-25T15:02:27;10.80;99.90
21616;DHT22;10970;48.714;9.584;2023-04-25T15:04:53;10.90;99.90
21616;DHT22;10970;48.714;9.584;2023-04-25T15:07:19;11.00;99.90
21616;DHT22;10970;48.714;9.584;2023-04-25T15:09:46;11.10;99.90
21616;DHT22;10970;48.714;9.584;2023-04-25T15:12:13;11.20;99.90
21616;DHT22;10970;48.714;9.584;2023-04-25T15:14:38;11.20;99.90
21616;DHT22;10970;48.714;9.584;2023-04-25T15:17:04;11.30;99.90
21616;DHT22;10970;48.714;9.584;2023-04-25T15:19:30;11.70;99.90
21616;DHT22;10970;48.714;9.584;2023-04-25T15:21:56;11.80;99.90
21616;DHT22;10970;48.714;9.584;2023-04-25T15:24:21;11.60;99.90
21616;DHT22;10970;48.714;9.584;2023-04-25T15:26:47;11.20;99.90
21616;DHT22;10970;48.714;9.584;2023-04-25T15:29:13;11.10;99.90
21616;DHT22;10970;48.714;9.584;2023-04-25T15:31:38;11.20;99.90
21616;DHT22;10970;48.714;9.584;2023-04-25T15:34:05;11.20;99.90
21616;DHT22;10970;48.714;9.584;2023-04-25T15:36:31;11.10;99.90
21616;DHT22;10970;48.714;9.584;2023-04-25T15:38:57;11.00;99.90
21616;DHT22;10970;48.714;9.584;2023-04-25T15:41:23;10.90;99.90
21616;DHT22;10970;48.714;9.584;2023-04-25T15:43:52;10.70;99.90
21616;DHT22;10970;48.714;9.584;2023-04-25T15:46:17;10.60;99.90
21616;DHT22;10970;48.714;9.584;2023-04-25T15:48:43;10.60;99.90
21616;DHT22;10970;48.714;9.584;2023-04-25T15:51:09;10.70;99.90
21616;DHT22;10970;48.714;9.584;2023-04-25T15:53:35;10.70;99.90
21616;DHT22;10970;48.714;9.584;2023-04-25T15:56:01;10.60;99.90